Huvudsida
METAR-TAF:

METAR-TAF

Flygplatser :

Honiara International Airport

Honiara, Guadalcanal, Salomonöarna

latitud: 09-25S, longitud: 160-03E, höjd: 8 m

Aktuellt väderrapport

Denna rapport gjordes för 53 minuter sedan, klockan 18:00 UTC
Stilla vind
Temperatur 25°C
Fuktighet 89%
Tryck 1006 hPa
Sikt 10 km eller mer
Få moln på en höjd av 1400 ft

METAR: AGGH 111800Z 00000KT 9999 FEW014 25/23 Q1006

Tid: 05:53 (18:53 UTC)

Väderprognos

Denna rapport gjordes för 1 timme och 38 minuter sedan, klockan 17:15 UTC
Prognos gäller från 11 kl. 18 UTC till 12 kl. 18 UTC
Vind 7 kt från nord
Sikt 10 km eller mer
Få moln på en höjd av 1800 ft
Sannolikhet 40%
mellan IN och TE UTC
Sikt: 1006 m
Brutna moln på en höjd av 1700 ft
Få moln på en höjd av 1800 ft, Cumulonimbus.

TAF: AGGH 111715Z 1118/1218 36007KT 9999 FEW018 PROB40 INTER 1202/1207 5000 TSSH BKN017 FEW018CB T 24 27 31 32 Q 1006 1008 1008 1006

Aktuella väderrapporter och prognoser från 4000 flygplatser (METAR- och TAF-rapporter).

De tillgängliga stationerna syns som gula och röda prickar på kartan.

För musen över prickarna för att se namnen på stationerna.

Klicka sedan för att få väderrapporter och prognoser.

För att ändra kartan: Klicka på de gröna knapparna med ett svart kors på för att zooma in; den gröna knappen med ett streck på för att zooma ut; eller på de gröna pilarna för angränsande kartor.


METAR-TAF: